sensor_id;sensor_type;location;lat;lon;timestamp;pressure;altitude;pressure_sealevel;temperature;humidity
52949;BME280;38812;50.942;3.644;2023-07-20T00:00:44;101501.59;;;15.79;100.00
52949;BME280;38812;50.942;3.644;2023-07-20T00:03:11;101494.06;;;15.65;100.00
52949;BME280;38812;50.942;3.644;2023-07-20T00:05:50;101499.88;;;15.77;100.00
52949;BME280;38812;50.942;3.644;2023-07-20T00:08:17;101488.50;;;15.74;100.00
52949;BME280;38812;50.942;3.644;2023-07-20T00:10:43;101486.19;;;15.63;100.00
52949;BME280;38812;50.942;3.644;2023-07-20T00:13:10;101497.91;;;15.55;100.00
52949;BME280;38812;50.942;3.644;2023-07-20T00:15:36;101503.41;;;15.49;100.00
52949;BME280;38812;50.942;3.644;2023-07-20T00:18:03;101506.19;;;15.44;100.00
52949;BME280;38812;50.942;3.644;2023-07-20T00:20:29;101509.34;;;15.27;100.00
52949;BME280;38812;50.942;3.644;2023-07-20T00:22:54;101511.03;;;15.30;100.00
52949;BME280;38812;50.942;3.644;2023-07-20T00:25:20;101502.81;;;15.09;100.00
52949;BME280;38812;50.942;3.644;2023-07-20T00:27:45;101499.44;;;15.04;100.00
52949;BME280;38812;50.942;3.644;2023-07-20T00:30:11;101499.69;;;14.95;100.00
52949;BME280;38812;50.942;3.644;2023-07-20T00:32:37;101495.69;;;14.81;100.00
52949;BME280;38812;50.942;3.644;2023-07-20T00:35:02;101505.16;;;14.89;100.00
52949;BME280;38812;50.942;3.644;2023-07-20T00:37:28;101516.53;;;14.93;100.00
52949;BME280;38812;50.942;3.644;2023-07-20T00:39:54;101521.72;;;14.96;100.00
52949;BME280;38812;50.942;3.644;2023-07-20T00:42:20;101535.00;;;14.94;100.00
52949;BME280;38812;50.942;3.644;2023-07-20T00:44:45;101529.19;;;14.82;100.00
52949;BME280;38812;50.942;3.644;2023-07-20T00:47:11;101529.03;;;14.88;100.00
52949;BME280;38812;50.942;3.644;2023-07-20T00:49:37;101536.13;;;14.86;100.00
52949;BME280;38812;50.942;3.644;2023-07-20T00:52:03;101523.97;;;14.79;100.00
52949;BME280;38812;50.942;3.644;2023-07-20T00:54:30;101514.53;;;14.70;100.00
52949;BME280;38812;50.942;3.644;2023-07-20T00:56:56;101522.16;;;14.81;100.00
52949;BME280;38812;50.942;3.644;2023-07-20T00:59:23;101504.03;;;14.67;100.00
52949;BME280;38812;50.942;3.644;2023-07-20T01:01:49;101530.84;;;14.86;100.00
52949;BME280;38812;50.942;3.644;2023-07-20T01:04:14;101518.69;;;14.79;100.00
52949;BME280;38812;50.942;3.644;2023-07-20T01:09:19;101516.03;;;14.79;100.00
52949;BME280;38812;50.942;3.644;2023-07-20T01:11:54;101529.97;;;14.85;100.00
52949;BME280;38812;50.942;3.644;2023-07-20T01:14:23;101532.50;;;14.90;100.00
52949;BME280;38812;50.942;3.644;2023-07-20T01:16:50;101535.13;;;14.90;100.00
52949;BME280;38812;50.942;3.644;2023-07-20T01:19:17;101523.72;;;14.88;100.00
52949;BME280;38812;50.942;3.644;2023-07-20T01:32:57;101524.47;;;14.60;100.00
52949;BME280;38812;50.942;3.644;2023-07-20T01:35:28;101532.44;;;14.59;100.00
52949;BME280;38812;50.942;3.644;2023-07-20T01:37:55;101527.47;;;14.48;100.00
52949;BME280;38812;50.942;3.644;2023-07-20T01:40:21;101527.66;;;14.39;100.00
52949;BME280;38812;50.942;3.644;2023-07-20T01:42:47;101516.59;;;14.25;100.00
52949;BME280;38812;50.942;3.644;2023-07-20T01:45:13;101537.81;;;14.22;100.00
52949;BME280;38812;50.942;3.644;2023-07-20T01:47:38;101539.75;;;14.14;100.00
52949;BME280;38812;50.942;3.644;2023-07-20T01:50:04;101520.56;;;14.07;100.00
52949;BME280;38812;50.942;3.644;2023-07-20T01:52:30;101522.44;;;14.02;100.00
52949;BME280;38812;50.942;3.644;2023-07-20T01:54:55;101530.31;;;14.05;100.00
52949;BME280;38812;50.942;3.644;2023-07-20T01:57:21;101532.13;;;14.01;100.00
52949;BME280;38812;50.942;3.644;2023-07-20T01:59:46;101524.44;;;13.92;100.00
52949;BME280;38812;50.942;3.644;2023-07-20T02:02:12;101529.84;;;13.86;100.00
52949;BME280;38812;50.942;3.644;2023-07-20T02:04:37;101527.44;;;13.77;100.00
52949;BME280;38812;50.942;3.644;2023-07-20T02:07:02;101525.78;;;13.73;100.00
52949;BME280;38812;50.942;3.644;2023-07-20T02:09:28;101525.03;;;13.66;100.00
52949;BME280;38812;50.942;3.644;2023-07-20T02:11:53;101542.56;;;13.69;100.00
52949;BME280;38812;50.942;3.644;2023-07-20T02:14:19;101537.25;;;13.70;100.00
52949;BME280;38812;50.942;3.644;2023-07-20T02:16:44;101538.97;;;13.73;100.00
52949;BME280;38812;50.942;3.644;2023-07-20T02:19:10;101526.69;;;13.70;100.00
52949;BME280;38812;50.942;3.644;2023-07-20T02:21:36;101512.56;;;13.73;100.00
52949;BME280;38812;50.942;3.644;2023-07-20T02:24:01;101541.06;;;13.96;100.00
52949;BME280;38812;50.942;3.644;2023-07-20T02:26:26;101514.78;;;13.90;100.00
52949;BME280;38812;50.942;3.644;2023-07-20T02:28:52;101538.22;;;14.05;100.00
52949;BME280;38812;50.942;3.644;2023-07-20T02:31:17;101549.34;;;14.18;100.00
52949;BME280;38812;50.942;3.644;2023-07-20T02:33:42;101524.03;;;14.07;100.00
52949;BME280;38812;50.942;3.644;2023-07-20T02:36:08;101537.84;;;14.20;100.00
52949;BME280;38812;50.942;3.644;2023-07-20T02:38:33;101538.56;;;14.27;100.00
52949;BME280;38812;50.942;3.644;2023-07-20T02:40:59;101540.88;;;14.39;100.00
52949;BME280;38812;50.942;3.644;2023-07-20T02:43:24;101542.47;;;14.48;100.00
52949;BME280;38812;50.942;3.644;2023-07-20T02:45:50;101527.56;;;14.44;100.00
52949;BME280;38812;50.942;3.644;2023-07-20T02:48:15;101529.38;;;14.42;100.00
52949;BME280;38812;50.942;3.644;2023-07-20T02:50:41;101532.75;;;14.48;100.00
52949;BME280;38812;50.942;3.644;2023-07-20T02:53:06;101530.19;;;14.45;100.00
52949;BME280;38812;50.942;3.644;2023-07-20T02:55:31;101538.75;;;14.53;100.00
52949;BME280;38812;50.942;3.644;2023-07-20T02:57:57;101537.78;;;14.57;100.00
52949;BME280;38812;50.942;3.644;2023-07-20T03:00:22;101535.78;;;14.67;100.00
52949;BME280;38812;50.942;3.644;2023-07-20T03:02:48;101536.63;;;14.67;100.00
52949;BME280;38812;50.942;3.644;2023-07-20T03:05:14;101542.75;;;14.69;100.00
52949;BME280;38812;50.942;3.644;2023-07-20T03:07:40;101509.03;;;14.45;100.00
52949;BME280;38812;50.942;3.644;2023-07-20T03:10:07;101544.72;;;14.61;100.00
52949;BME280;38812;50.942;3.644;2023-07-20T03:12:34;101532.44;;;14.59;100.00
52949;BME280;38812;50.942;3.644;2023-07-20T03:14:59;101540.34;;;14.60;100.00
52949;BME280;38812;50.942;3.644;2023-07-20T03:17:25;101517.78;;;14.47;100.00
52949;BME280;38812;50.942;3.644;2023-07-20T03:19:50;101519.03;;;14.66;100.00
52949;BME280;38812;50.942;3.644;2023-07-20T03:22:15;101530.84;;;14.86;100.00
52949;BME280;38812;50.942;3.644;2023-07-20T03:24:41;101532.28;;;14.65;100.00
52949;BME280;38812;50.942;3.644;2023-07-20T03:27:06;101545.47;;;14.66;100.00
52949;BME280;38812;50.942;3.644;2023-07-20T03:29:32;101524.47;;;14.60;100.00
52949;BME280;38812;50.942;3.644;2023-07-20T03:31:58;101519.28;;;14.57;100.00
52949;BME280;38812;50.942;3.644;2023-07-20T03:34:24;101538.53;;;14.62;100.00
52949;BME280;38812;50.942;3.644;2023-07-20T03:36:50;101539.38;;;14.64;100.00
52949;BME280;38812;50.942;3.644;2023-07-20T03:39:16;101543.84;;;14.61;100.00
52949;BME280;38812;50.942;3.644;2023-07-20T03:41:42;101537.78;;;14.57;100.00
52949;BME280;38812;50.942;3.644;2023-07-20T03:44:08;101531.66;;;14.55;100.00
52949;BME280;38812;50.942;3.644;2023-07-20T03:46:33;101548.31;;;14.59;100.00
52949;BME280;38812;50.942;3.644;2023-07-20T03:48:59;101540.50;;;14.54;100.00
52949;BME280;38812;50.942;3.644;2023-07-20T03:51:25;101543.91;;;14.59;100.00
52949;BME280;38812;50.942;3.644;2023-07-20T03:53:51;101542.16;;;14.58;100.00
52949;BME280;38812;50.942;3.644;2023-07-20T03:56:16;101550.59;;;14.72;100.00
52949;BME280;38812;50.942;3.644;2023-07-20T03:58:41;101545.47;;;14.66;100.00
52949;BME280;38812;50.942;3.644;2023-07-20T04:01:07;101549.97;;;14.63;100.00
52949;BME280;38812;50.942;3.644;2023-07-20T04:03:33;101548.97;;;14.68;100.00
52949;BME280;38812;50.942;3.644;2023-07-20T04:05:58;101534.91;;;14.66;100.00
52949;BME280;38812;50.942;3.644;2023-07-20T04:08:24;101524.56;;;14.57;100.00
52949;BME280;38812;50.942;3.644;2023-07-20T04:10:50;101534.06;;;14.64;100.00
52949;BME280;38812;50.942;3.644;2023-07-20T04:13:15;101541.09;;;14.65;100.00
52949;BME280;38812;50.942;3.644;2023-07-20T04:15:42;101548.88;;;14.71;100.00
52949;BME280;38812;50.942;3.644;2023-07-20T04:18:08;101515.97;;;14.49;100.00
52949;BME280;38812;50.942;3.644;2023-07-20T04:20:33;101546.22;;;14.71;100.00
52949;BME280;38812;50.942;3.644;2023-07-20T04:22:58;101549.56;;;14.78;100.00
52949;BME280;38812;50.942;3.644;2023-07-20T04:25:24;101548.88;;;14.71;100.00
52949;BME280;38812;50.942;3.644;2023-07-20T04:27:49;101538.53;;;14.62;100.00
52949;BME280;38812;50.942;3.644;2023-07-20T04:30:17;101564.47;;;14.81;100.00
52949;BME280;38812;50.942;3.644;2023-07-20T04:32:45;101547.78;;;14.79;100.00
52949;BME280;38812;50.942;3.644;2023-07-20T04:38:01;101563.19;;;14.95;100.00
52949;BME280;38812;50.942;3.644;2023-07-20T04:40:26;101554.38;;;14.95;100.00
52949;BME280;38812;50.942;3.644;2023-07-20T04:42:51;101554.22;;;15.01;100.00
52949;BME280;38812;50.942;3.644;2023-07-20T04:45:17;101553.25;;;15.03;100.00
52949;BME280;38812;50.942;3.644;2023-07-20T04:47:44;101538.50;;;14.95;100.00
52949;BME280;38812;50.942;3.644;2023-07-20T04:50:09;101538.50;;;14.95;100.00
52949;BME280;38812;50.942;3.644;2023-07-20T04:52:35;101551.72;;;14.95;100.00
52949;BME280;38812;50.942;3.644;2023-07-20T04:55:00;101555.16;;;14.98;100.00
52949;BME280;38812;50.942;3.644;2023-07-20T04:57:26;101554.28;;;14.98;100.00
52949;BME280;38812;50.942;3.644;2023-07-20T04:59:51;101541.66;;;15.09;100.00
52949;BME280;38812;50.942;3.644;2023-07-20T05:02:17;101549.22;;;15.21;100.00
52949;BME280;38812;50.942;3.644;2023-07-20T05:04:42;101542.75;;;15.31;100.00
52949;BME280;38812;50.942;3.644;2023-07-20T05:07:08;101523.13;;;15.09;100.00
52949;BME280;38812;50.942;3.644;2023-07-20T05:09:33;101549.13;;;15.24;100.00
52949;BME280;38812;50.942;3.644;2023-07-20T05:11:59;101547.34;;;15.25;100.00
52949;BME280;38812;50.942;3.644;2023-07-20T05:14:24;101534.91;;;15.28;100.00
52949;BME280;38812;50.942;3.644;2023-07-20T05:16:49;101522.16;;;15.41;100.00
52949;BME280;38812;50.942;3.644;2023-07-20T05:19:15;101524.56;;;15.49;100.00
52949;BME280;38812;50.942;3.644;2023-07-20T05:21:40;101534.22;;;15.51;100.00
52949;BME280;38812;50.942;3.644;2023-07-20T05:24:06;101541.47;;;15.44;100.00
52949;BME280;38812;50.942;3.644;2023-07-20T05:26:32;101542.38;;;15.43;100.00
52949;BME280;38812;50.942;3.644;2023-07-20T05:28:58;101551.88;;;15.51;100.00
52949;BME280;38812;50.942;3.644;2023-07-20T05:31:24;101545.31;;;15.64;100.00
52949;BME280;38812;50.942;3.644;2023-07-20T05:33:49;101528.22;;;15.74;100.00
52949;BME280;38812;50.942;3.644;2023-07-20T05:36:15;101526.00;;;15.88;100.00
52949;BME280;38812;50.942;3.644;2023-07-20T05:38:40;101545.63;;;16.09;100.00
52949;BME280;38812;50.942;3.644;2023-07-20T05:41:06;101540.59;;;16.28;100.00
52949;BME280;38812;50.942;3.644;2023-07-20T05:43:35;101521.50;;;16.69;100.00
52949;BME280;38812;50.942;3.644;2023-07-20T05:46:01;101510.09;;;16.91;100.00
52949;BME280;38812;50.942;3.644;2023-07-20T05:48:26;101526.38;;;16.82;100.00
52949;BME280;38812;50.942;3.644;2023-07-20T05:50:51;101522.34;;;16.70;100.00
52949;BME280;38812;50.942;3.644;2023-07-20T05:53:17;101506.19;;;16.51;100.00
52949;BME280;38812;50.942;3.644;2023-07-20T05:55:42;101523.47;;;16.64;100.00
52949;BME280;38812;50.942;3.644;2023-07-20T05:58:08;101506.19;;;16.51;100.00
52949;BME280;38812;50.942;3.644;2023-07-20T06:00:33;101513.66;;;16.40;100.00
52949;BME280;38812;50.942;3.644;2023-07-20T06:02:58;101509.00;;;16.46;100.00
52949;BME280;38812;50.942;3.644;2023-07-20T06:05:24;101526.94;;;16.66;100.00
52949;BME280;38812;50.942;3.644;2023-07-20T06:07:50;101527.41;;;16.77;100.00
52949;BME280;38812;50.942;3.644;2023-07-20T06:10:16;101521.03;;;17.06;100.00
52949;BME280;38812;50.942;3.644;2023-07-20T06:12:41;101520.38;;;17.70;100.00
52949;BME280;38812;50.942;3.644;2023-07-20T06:15:24;101531.94;;;17.91;100.00
52949;BME280;38812;50.942;3.644;2023-07-20T06:17:50;101535.63;;;17.65;100.00
52949;BME280;38812;50.942;3.644;2023-07-20T06:20:16;101542.06;;;17.81;100.00
52949;BME280;38812;50.942;3.644;2023-07-20T06:22:41;101538.59;;;17.56;100.00
52949;BME280;38812;50.942;3.644;2023-07-20T06:25:07;101526.06;;;17.59;100.00
52949;BME280;38812;50.942;3.644;2023-07-20T06:27:32;101536.50;;;17.65;100.00
52949;BME280;38812;50.942;3.644;2023-07-20T06:29:58;101541.84;;;17.64;100.00
52949;BME280;38812;50.942;3.644;2023-07-20T06:32:23;101545.22;;;17.69;100.00
52949;BME280;38812;50.942;3.644;2023-07-20T06:34:49;101547.00;;;17.68;100.00
52949;BME280;38812;50.942;3.644;2023-07-20T06:37:14;101534.91;;;17.83;100.00
52949;BME280;38812;50.942;3.644;2023-07-20T06:39:39;101538.06;;;17.71;100.00
52949;BME280;38812;50.942;3.644;2023-07-20T06:42:05;101557.41;;;17.74;100.00
52949;BME280;38812;50.942;3.644;2023-07-20T06:44:31;101558.94;;;18.02;100.00
52949;BME280;38812;50.942;3.644;2023-07-20T06:46:56;101551.34;;;18.14;100.00
52949;BME280;38812;50.942;3.644;2023-07-20T06:49:25;101554.81;;;18.17;100.00
52949;BME280;38812;50.942;3.644;2023-07-20T06:51:51;101559.50;;;18.10;100.00
52949;BME280;38812;50.942;3.644;2023-07-20T06:54:16;101559.63;;;18.07;100.00
52949;BME280;38812;50.942;3.644;2023-07-20T06:56:42;101569.16;;;18.12;100.00
52949;BME280;38812;50.942;3.644;2023-07-20T06:59:07;101556.66;;;18.14;100.00
52949;BME280;38812;50.942;3.644;2023-07-20T07:01:32;101561.56;;;18.24;100.00
52949;BME280;38812;50.942;3.644;2023-07-20T07:03:58;101566.53;;;18.33;100.00
52949;BME280;38812;50.942;3.644;2023-07-20T07:06:23;101571.59;;;18.39;100.00
52949;BME280;38812;50.942;3.644;2023-07-20T07:08:49;101572.81;;;18.52;100.00
52949;BME280;38812;50.942;3.644;2023-07-20T07:11:14;101561.75;;;18.19;100.00
52949;BME280;38812;50.942;3.644;2023-07-20T07:13:39;101568.81;;;17.98;100.00
52949;BME280;38812;50.942;3.644;2023-07-20T07:16:05;101544.41;;;18.10;100.00
52949;BME280;38812;50.942;3.644;2023-07-20T07:18:30;101569.47;;;18.47;100.00
52949;BME280;38812;50.942;3.644;2023-07-20T07:20:55;101558.81;;;18.47;100.00
52949;BME280;38812;50.942;3.644;2023-07-20T07:23:21;101560.84;;;18.62;100.00
52949;BME280;38812;50.942;3.644;2023-07-20T07:25:46;101550.72;;;18.91;100.00
52949;BME280;38812;50.942;3.644;2023-07-20T07:28:12;101563.56;;;19.40;100.00
52949;BME280;38812;50.942;3.644;2023-07-20T07:30:38;101558.59;;;19.70;100.00
52949;BME280;38812;50.942;3.644;2023-07-20T07:33:03;101571.25;;;19.67;100.00
52949;BME280;38812;50.942;3.644;2023-07-20T07:35:29;101554.81;;;19.57;100.00
52949;BME280;38812;50.942;3.644;2023-07-20T07:37:54;101561.88;;;19.58;100.00
52949;BME280;38812;50.942;3.644;2023-07-20T07:40:20;101551.00;;;19.63;100.00
52949;BME280;38812;50.942;3.644;2023-07-20T07:42:46;101562.13;;;19.71;100.00
52949;BME280;38812;50.942;3.644;2023-07-20T07:45:11;101559.94;;;19.98;100.00
52949;BME280;38812;50.942;3.644;2023-07-20T07:47:36;101564.22;;;19.83;100.00
52949;BME280;38812;50.942;3.644;2023-07-20T07:50:02;101566.72;;;20.05;100.00
52949;BME280;38812;50.942;3.644;2023-07-20T07:52:28;101553.91;;;19.94;100.00
52949;BME280;38812;50.942;3.644;2023-07-20T07:54:53;101576.91;;;20.14;100.00
52949;BME280;38812;50.942;3.644;2023-07-20T07:57:19;101565.22;;;19.99;100.00
52949;BME280;38812;50.942;3.644;2023-07-20T07:59:44;101552.91;;;19.78;100.00
52949;BME280;38812;50.942;3.644;2023-07-20T08:02:09;101561.91;;;19.75;100.00
52949;BME280;38812;50.942;3.644;2023-07-20T08:04:35;101569.84;;;19.77;100.00
52949;BME280;38812;50.942;3.644;2023-07-20T08:07:03;101560.91;;;19.78;100.00
52949;BME280;38812;50.942;3.644;2023-07-20T08:09:29;101569.91;;;19.94;100.00
52949;BME280;38812;50.942;3.644;2023-07-20T08:11:54;101558.09;;;19.81;100.00
52949;BME280;38812;50.942;3.644;2023-07-20T08:14:20;101569.22;;;19.91;100.00
52949;BME280;38812;50.942;3.644;2023-07-20T08:16:45;101573.84;;;19.68;100.00
52949;BME280;38812;50.942;3.644;2023-07-20T08:19:11;101576.44;;;19.70;100.00
52949;BME280;38812;50.942;3.644;2023-07-20T08:21:36;101575.56;;;19.69;100.00
52949;BME280;38812;50.942;3.644;2023-07-20T08:24:02;101569.00;;;19.58;100.00
52949;BME280;38812;50.942;3.644;2023-07-20T08:26:27;101564.22;;;19.83;100.00
52949;BME280;38812;50.942;3.644;2023-07-20T08:28:52;101571.09;;;19.89;100.00
52949;BME280;38812;50.942;3.644;2023-07-20T08:31:18;101540.94;;;19.87;100.00
52949;BME280;38812;50.942;3.644;2023-07-20T08:33:43;101563.59;;;19.78;100.00
52949;BME280;38812;50.942;3.644;2023-07-20T08:36:09;101566.75;;;19.86;100.00
52949;BME280;38812;50.942;3.644;2023-07-20T08:38:34;101572.06;;;20.05;100.00
52949;BME280;38812;50.942;3.644;2023-07-20T08:41:00;101555.34;;;20.01;100.00
52949;BME280;38812;50.942;3.644;2023-07-20T08:43:27;101561.09;;;19.92;100.00
52949;BME280;38812;50.942;3.644;2023-07-20T08:45:57;101570.31;;;20.04;100.00
52949;BME280;38812;50.942;3.644;2023-07-20T08:48:23;101558.50;;;20.09;100.00
52949;BME280;38812;50.942;3.644;2023-07-20T08:50:51;101552.69;;;20.18;100.00
52949;BME280;38812;50.942;3.644;2023-07-20T08:53:16;101564.06;;;20.22;100.00
52949;BME280;38812;50.942;3.644;2023-07-20T08:55:44;101548.28;;;20.17;100.00
52949;BME280;38812;50.942;3.644;2023-07-20T08:58:12;101553.97;;;20.29;100.00
52949;BME280;38812;50.942;3.644;2023-07-20T09:00:38;101540.88;;;20.59;100.00
52949;BME280;38812;50.942;3.644;2023-07-20T09:03:04;101541.00;;;21.72;100.00
52949;BME280;38812;50.942;3.644;2023-07-20T09:05:30;101552.00;;;22.29;100.00
52949;BME280;38812;50.942;3.644;2023-07-20T09:07:55;101539.47;;;22.59;100.00
52949;BME280;38812;50.942;3.644;2023-07-20T09:10:21;101551.03;;;22.89;100.00
52949;BME280;38812;50.942;3.644;2023-07-20T09:12:47;101558.91;;;22.93;100.00
52949;BME280;38812;50.942;3.644;2023-07-20T09:15:13;101554.75;;;22.87;100.00
52949;BME280;38812;50.942;3.644;2023-07-20T09:17:38;101558.19;;;22.45;100.00
52949;BME280;38812;50.942;3.644;2023-07-20T09:20:08;101549.44;;;22.11;100.00
52949;BME280;38812;50.942;3.644;2023-07-20T09:22:39;101548.22;;;21.70;100.00
52949;BME280;38812;50.942;3.644;2023-07-20T09:25:11;101550.41;;;22.40;100.00
52949;BME280;38812;50.942;3.644;2023-07-20T09:27:44;101549.31;;;23.03;100.00
52949;BME280;38812;50.942;3.644;2023-07-20T09:30:10;101548.94;;;23.37;100.00
52949;BME280;38812;50.942;3.644;2023-07-20T09:32:43;101546.56;;;24.15;98.56
52949;BME280;38812;50.942;3.644;2023-07-20T09:35:19;101538.19;;;23.66;98.46
52949;BME280;38812;50.942;3.644;2023-07-20T09:37:53;101553.22;;;22.97;100.00
52949;BME280;38812;50.942;3.644;2023-07-20T09:40:20;101558.13;;;23.33;100.00
52949;BME280;38812;50.942;3.644;2023-07-20T09:42:45;101548.16;;;23.49;99.24
52949;BME280;38812;50.942;3.644;2023-07-20T09:45:11;101555.75;;;23.14;94.81
52949;BME280;38812;50.942;3.644;2023-07-20T09:47:37;101543.97;;;22.58;95.26
52949;BME280;38812;50.942;3.644;2023-07-20T09:50:04;101534.41;;;23.13;97.09
52949;BME280;38812;50.942;3.644;2023-07-20T09:52:30;101535.81;;;22.90;99.52
52949;BME280;38812;50.942;3.644;2023-07-20T09:54:56;101546.38;;;22.63;100.00
52949;BME280;38812;50.942;3.644;2023-07-20T09:57:23;101527.72;;;22.62;100.00
52949;BME280;38812;50.942;3.644;2023-07-20T09:59:48;101532.38;;;23.59;100.00
52949;BME280;38812;50.942;3.644;2023-07-20T10:02:21;101537.09;;;24.36;88.64
52949;BME280;38812;50.942;3.644;2023-07-20T10:04:53;101521.31;;;23.49;95.64
52949;BME280;38812;50.942;3.644;2023-07-20T10:07:19;101535.59;;;22.79;100.00
52949;BME280;38812;50.942;3.644;2023-07-20T10:09:48;101538.41;;;22.62;100.00
52949;BME280;38812;50.942;3.644;2023-07-20T10:12:15;101526.56;;;22.51;100.00
52949;BME280;38812;50.942;3.644;2023-07-20T10:14:46;101532.38;;;22.58;98.63
52949;BME280;38812;50.942;3.644;2023-07-20T10:17:14;101531.34;;;22.31;99.13
52949;BME280;38812;50.942;3.644;2023-07-20T10:19:50;101530.78;;;22.26;98.67
52949;BME280;38812;50.942;3.644;2023-07-20T10:22:25;101516.06;;;22.33;96.33
52949;BME280;38812;50.942;3.644;2023-07-20T10:24:51;101530.97;;;22.22;100.00
52949;BME280;38812;50.942;3.644;2023-07-20T10:27:20;101523.56;;;22.56;100.00
52949;BME280;38812;50.942;3.644;2023-07-20T10:29:46;101522.47;;;23.45;96.48
52949;BME280;38812;50.942;3.644;2023-07-20T10:32:12;101521.06;;;24.35;83.94
52949;BME280;38812;50.942;3.644;2023-07-20T10:34:39;101508.75;;;24.18;84.25
52949;BME280;38812;50.942;3.644;2023-07-20T10:37:04;101521.13;;;24.85;79.64
52949;BME280;38812;50.942;3.644;2023-07-20T10:39:33;101504.47;;;24.15;76.74
52949;BME280;38812;50.942;3.644;2023-07-20T10:42:08;101502.75;;;23.46;74.90
52949;BME280;38812;50.942;3.644;2023-07-20T10:44:37;101517.06;;;23.33;82.90
52949;BME280;38812;50.942;3.644;2023-07-20T10:47:08;101505.66;;;23.01;86.18
52949;BME280;38812;50.942;3.644;2023-07-20T10:49:34;101498.19;;;22.77;84.74
52949;BME280;38812;50.942;3.644;2023-07-20T10:52:04;101504.13;;;22.82;83.41
52949;BME280;38812;50.942;3.644;2023-07-20T10:57:22;101512.47;;;22.18;82.02
52949;BME280;38812;50.942;3.644;2023-07-20T10:59:48;101488.34;;;21.88;87.21
52949;BME280;38812;50.942;3.644;2023-07-20T11:02:17;101490.88;;;21.75;82.82
52949;BME280;38812;50.942;3.644;2023-07-20T11:04:45;101495.34;;;21.75;90.27
52949;BME280;38812;50.942;3.644;2023-07-20T11:07:15;101501.16;;;21.51;90.88
52949;BME280;38812;50.942;3.644;2023-07-20T11:09:41;101485.72;;;21.41;88.80
52949;BME280;38812;50.942;3.644;2023-07-20T11:12:14;101485.53;;;21.28;90.32
52949;BME280;38812;50.942;3.644;2023-07-20T11:14:52;101494.75;;;21.23;99.48
52949;BME280;38812;50.942;3.644;2023-07-20T11:17:19;101488.81;;;21.00;99.29
52949;BME280;38812;50.942;3.644;2023-07-20T11:19:55;101482.38;;;20.71;100.00
52949;BME280;38812;50.942;3.644;2023-07-20T11:22:21;101486.78;;;20.72;100.00
52949;BME280;38812;50.942;3.644;2023-07-20T11:24:47;101498.31;;;20.73;100.00
52949;BME280;38812;50.942;3.644;2023-07-20T11:27:14;101494.78;;;20.72;100.00
52949;BME280;38812;50.942;3.644;2023-07-20T11:29:39;101485.47;;;20.46;100.00
52949;BME280;38812;50.942;3.644;2023-07-20T11:32:05;101494.19;;;20.33;100.00
52949;BME280;38812;50.942;3.644;2023-07-20T11:34:31;101485.22;;;20.16;100.00
52949;BME280;38812;50.942;3.644;2023-07-20T11:36:57;101500.69;;;20.10;100.00
52949;BME280;38812;50.942;3.644;2023-07-20T11:39:23;101494.13;;;19.98;100.00
52949;BME280;38812;50.942;3.644;2023-07-20T11:41:55;101498.38;;;20.02;100.00
52949;BME280;38812;50.942;3.644;2023-07-20T11:44:23;101496.94;;;19.95;100.00
52949;BME280;38812;50.942;3.644;2023-07-20T11:47:07;101495.41;;;19.72;100.00
52949;BME280;38812;50.942;3.644;2023-07-20T11:49:37;101490.97;;;19.35;100.00
52949;BME280;38812;50.942;3.644;2023-07-20T11:52:05;101512.22;;;19.37;100.00
52949;BME280;38812;50.942;3.644;2023-07-20T11:54:32;101500.28;;;19.27;100.00
52949;BME280;38812;50.942;3.644;2023-07-20T11:57:01;101507.69;;;19.20;100.00
52949;BME280;38812;50.942;3.644;2023-07-20T11:59:26;101507.94;;;19.14;100.00
52949;BME280;38812;50.942;3.644;2023-07-20T12:01:52;101497.41;;;18.92;100.00
52949;BME280;38812;50.942;3.644;2023-07-20T12:04:17;101491.09;;;18.95;100.00
52949;BME280;38812;50.942;3.644;2023-07-20T12:06:45;101500.63;;;19.19;100.00
52949;BME280;38812;50.942;3.644;2023-07-20T12:09:14;101492.84;;;19.14;100.00
52949;BME280;38812;50.942;3.644;2023-07-20T12:11:43;101486.09;;;19.26;100.00
52949;BME280;38812;50.942;3.644;2023-07-20T12:14:09;101496.09;;;19.40;100.00
52949;BME280;38812;50.942;3.644;2023-07-20T12:16:36;101481.34;;;19.51;100.00
52949;BME280;38812;50.942;3.644;2023-07-20T12:19:05;101485.44;;;19.59;100.00
52949;BME280;38812;50.942;3.644;2023-07-20T12:21:31;101482.88;;;19.74;100.00
52949;BME280;38812;50.942;3.644;2023-07-20T12:23:58;101473.50;;;19.84;100.00
52949;BME280;38812;50.942;3.644;2023-07-20T12:26:25;101464.50;;;19.87;100.00
52949;BME280;38812;50.942;3.644;2023-07-20T12:28:51;101463.41;;;20.08;100.00
52949;BME280;38812;50.942;3.644;2023-07-20T12:31:16;101475.81;;;20.27;100.00
52949;BME280;38812;50.942;3.644;2023-07-20T12:33:42;101466.47;;;20.52;100.00
52949;BME280;38812;50.942;3.644;2023-07-20T12:36:08;101442.69;;;21.45;100.00
52949;BME280;38812;50.942;3.644;2023-07-20T12:38:35;101443.53;;;21.62;100.00
52949;BME280;38812;50.942;3.644;2023-07-20T12:41:01;101451.94;;;22.01;100.00
52949;BME280;38812;50.942;3.644;2023-07-20T12:43:27;101442.78;;;22.05;100.00
52949;BME280;38812;50.942;3.644;2023-07-20T12:45:53;101447.63;;;21.37;100.00
52949;BME280;38812;50.942;3.644;2023-07-20T12:48:18;101439.31;;;21.26;100.00
52949;BME280;38812;50.942;3.644;2023-07-20T12:50:44;101426.47;;;21.48;100.00
52949;BME280;38812;50.942;3.644;2023-07-20T12:53:09;101420.53;;;21.43;100.00
52949;BME280;38812;50.942;3.644;2023-07-20T12:55:35;101435.19;;;21.52;100.00